sensor_id;sensor_type;location;lat;lon;timestamp;P1;durP1;ratioP1;P2;durP2;ratioP2
35893;SDS011;21994;48.204;16.516;2022-08-20T00:00:43;4.30;;;1.85;;
35893;SDS011;21994;48.204;16.516;2022-08-20T00:05:47;3.90;;;2.03;;
35893;SDS011;21994;48.204;16.516;2022-08-20T00:08:20;3.85;;;1.95;;
35893;SDS011;21994;48.204;16.516;2022-08-20T00:10:47;3.92;;;1.88;;
35893;SDS011;21994;48.204;16.516;2022-08-20T00:13:17;5.00;;;2.63;;
35893;SDS011;21994;48.204;16.516;2022-08-20T00:15:55;6.47;;;1.67;;
35893;SDS011;21994;48.204;16.516;2022-08-20T00:18:21;2.88;;;2.28;;
35893;SDS011;21994;48.204;16.516;2022-08-20T00:20:49;4.18;;;2.30;;
35893;SDS011;21994;48.204;16.516;2022-08-20T00:23:18;4.00;;;2.08;;
35893;SDS011;21994;48.204;16.516;2022-08-20T00:25:48;4.85;;;2.95;;
35893;SDS011;21994;48.204;16.516;2022-08-20T00:28:15;4.05;;;2.10;;
35893;SDS011;21994;48.204;16.516;2022-08-20T00:30:43;3.08;;;2.00;;
35893;SDS011;21994;48.204;16.516;2022-08-20T00:33:13;3.10;;;1.80;;
35893;SDS011;21994;48.204;16.516;2022-08-20T00:35:45;6.63;;;2.45;;
35893;SDS011;21994;48.204;16.516;2022-08-20T00:38:16;4.85;;;2.72;;
35893;SDS011;21994;48.204;16.516;2022-08-20T00:40:46;6.28;;;3.28;;
35893;SDS011;21994;48.204;16.516;2022-08-20T00:43:41;4.40;;;2.50;;
35893;SDS011;21994;48.204;16.516;2022-08-20T00:46:22;4.40;;;2.80;;
35893;SDS011;21994;48.204;16.516;2022-08-20T00:48:53;4.65;;;2.53;;
35893;SDS011;21994;48.204;16.516;2022-08-20T00:57:01;3.97;;;2.30;;
35893;SDS011;21994;48.204;16.516;2022-08-20T00:59:33;4.07;;;2.17;;
35893;SDS011;21994;48.204;16.516;2022-08-20T01:02:01;4.70;;;2.50;;
35893;SDS011;21994;48.204;16.516;2022-08-20T01:04:33;3.60;;;2.08;;
35893;SDS011;21994;48.204;16.516;2022-08-20T01:07:00;3.47;;;2.15;;
35893;SDS011;21994;48.204;16.516;2022-08-20T01:09:29;2.97;;;1.77;;
35893;SDS011;21994;48.204;16.516;2022-08-20T01:11:56;3.63;;;2.45;;
35893;SDS011;21994;48.204;16.516;2022-08-20T01:14:22;3.83;;;2.40;;
35893;SDS011;21994;48.204;16.516;2022-08-20T01:16:58;4.32;;;2.17;;
35893;SDS011;21994;48.204;16.516;2022-08-20T01:19:38;4.15;;;2.45;;
35893;SDS011;21994;48.204;16.516;2022-08-20T01:22:20;3.47;;;1.80;;
35893;SDS011;21994;48.204;16.516;2022-08-20T01:25:44;4.70;;;2.47;;
35893;SDS011;21994;48.204;16.516;2022-08-20T01:29:08;4.97;;;1.83;;
35893;SDS011;21994;48.204;16.516;2022-08-20T01:31:22;3.30;;;1.90;;
35893;SDS011;21994;48.204;16.516;2022-08-20T01:33:51;4.22;;;2.00;;
35893;SDS011;21994;48.204;16.516;2022-08-20T01:36:21;3.17;;;1.75;;
35893;SDS011;21994;48.204;16.516;2022-08-20T01:38:54;2.92;;;1.88;;
35893;SDS011;21994;48.204;16.516;2022-08-20T01:44:12;2.67;;;1.90;;
35893;SDS011;21994;48.204;16.516;2022-08-20T01:46:39;2.33;;;1.35;;
35893;SDS011;21994;48.204;16.516;2022-08-20T01:49:12;3.58;;;1.27;;
35893;SDS011;21994;48.204;16.516;2022-08-20T01:51:45;3.40;;;1.63;;
35893;SDS011;21994;48.204;16.516;2022-08-20T01:54:13;2.28;;;1.40;;
35893;SDS011;21994;48.204;16.516;2022-08-20T01:56:50;4.18;;;1.63;;
35893;SDS011;21994;48.204;16.516;2022-08-20T01:59:39;2.50;;;1.23;;
35893;SDS011;21994;48.204;16.516;2022-08-20T02:02:06;1.90;;;1.30;;
35893;SDS011;21994;48.204;16.516;2022-08-20T02:04:33;2.10;;;1.25;;
35893;SDS011;21994;48.204;16.516;2022-08-20T02:07:00;1.63;;;1.05;;
35893;SDS011;21994;48.204;16.516;2022-08-20T02:09:32;2.55;;;1.50;;
35893;SDS011;21994;48.204;16.516;2022-08-20T02:12:02;2.75;;;1.23;;
35893;SDS011;21994;48.204;16.516;2022-08-20T02:14:31;1.83;;;1.10;;
35893;SDS011;21994;48.204;16.516;2022-08-20T02:17:04;1.52;;;0.98;;
35893;SDS011;21994;48.204;16.516;2022-08-20T02:19:35;1.90;;;1.00;;
35893;SDS011;21994;48.204;16.516;2022-08-20T02:22:08;2.13;;;0.90;;
35893;SDS011;21994;48.204;16.516;2022-08-20T02:24:52;1.23;;;0.90;;
35893;SDS011;21994;48.204;16.516;2022-08-20T02:27:18;1.23;;;0.80;;
35893;SDS011;21994;48.204;16.516;2022-08-20T02:29:47;2.03;;;1.10;;
35893;SDS011;21994;48.204;16.516;2022-08-20T02:32:15;1.77;;;1.00;;
35893;SDS011;21994;48.204;16.516;2022-08-20T02:34:41;1.60;;;0.90;;
35893;SDS011;21994;48.204;16.516;2022-08-20T02:37:07;1.48;;;0.90;;
35893;SDS011;21994;48.204;16.516;2022-08-20T02:39:33;1.42;;;0.73;;
35893;SDS011;21994;48.204;16.516;2022-08-20T02:41:59;2.40;;;0.75;;
35893;SDS011;21994;48.204;16.516;2022-08-20T02:44:28;1.17;;;0.75;;
35893;SDS011;21994;48.204;16.516;2022-08-20T02:46:54;1.58;;;0.88;;
35893;SDS011;21994;48.204;16.516;2022-08-20T02:49:20;1.67;;;0.80;;
35893;SDS011;21994;48.204;16.516;2022-08-20T02:51:46;1.60;;;0.77;;
35893;SDS011;21994;48.204;16.516;2022-08-20T02:54:12;1.30;;;0.95;;
35893;SDS011;21994;48.204;16.516;2022-08-20T02:56:39;1.60;;;0.75;;
35893;SDS011;21994;48.204;16.516;2022-08-20T02:59:05;1.85;;;1.10;;
35893;SDS011;21994;48.204;16.516;2022-08-20T03:01:31;0.88;;;0.50;;
35893;SDS011;21994;48.204;16.516;2022-08-20T03:03:56;1.08;;;0.70;;
35893;SDS011;21994;48.204;16.516;2022-08-20T03:06:25;1.42;;;0.75;;
35893;SDS011;21994;48.204;16.516;2022-08-20T03:08:51;1.77;;;0.68;;
35893;SDS011;21994;48.204;16.516;2022-08-20T03:11:18;0.98;;;0.63;;
35893;SDS011;21994;48.204;16.516;2022-08-20T03:13:44;1.27;;;0.70;;
35893;SDS011;21994;48.204;16.516;2022-08-20T03:16:11;1.10;;;0.68;;
35893;SDS011;21994;48.204;16.516;2022-08-20T03:18:39;0.65;;;0.50;;
35893;SDS011;21994;48.204;16.516;2022-08-20T03:23:35;2.08;;;0.88;;
35893;SDS011;21994;48.204;16.516;2022-08-20T03:26:03;3.95;;;0.80;;
35893;SDS011;21994;48.204;16.516;2022-08-20T03:28:31;1.65;;;0.82;;
35893;SDS011;21994;48.204;16.516;2022-08-20T03:30:58;1.77;;;1.05;;
35893;SDS011;21994;48.204;16.516;2022-08-20T03:33:25;1.67;;;0.95;;
35893;SDS011;21994;48.204;16.516;2022-08-20T03:35:52;1.52;;;1.08;;
35893;SDS011;21994;48.204;16.516;2022-08-20T03:38:19;1.10;;;0.77;;
35893;SDS011;21994;48.204;16.516;2022-08-20T03:40:48;3.00;;;0.95;;
35893;SDS011;21994;48.204;16.516;2022-08-20T03:43:14;1.30;;;0.85;;
35893;SDS011;21994;48.204;16.516;2022-08-20T03:45:42;1.80;;;1.00;;
35893;SDS011;21994;48.204;16.516;2022-08-20T03:48:11;2.05;;;1.40;;
35893;SDS011;21994;48.204;16.516;2022-08-20T03:50:41;1.85;;;1.10;;
35893;SDS011;21994;48.204;16.516;2022-08-20T03:53:09;1.92;;;1.23;;
35893;SDS011;21994;48.204;16.516;2022-08-20T03:55:37;2.55;;;1.48;;
35893;SDS011;21994;48.204;16.516;2022-08-20T03:58:04;2.53;;;1.45;;
35893;SDS011;21994;48.204;16.516;2022-08-20T04:00:37;4.53;;;1.80;;
35893;SDS011;21994;48.204;16.516;2022-08-20T04:03:11;2.00;;;1.50;;
35893;SDS011;21994;48.204;16.516;2022-08-20T04:05:37;2.80;;;1.52;;
35893;SDS011;21994;48.204;16.516;2022-08-20T04:08:26;2.65;;;1.83;;
35893;SDS011;21994;48.204;16.516;2022-08-20T04:10:54;4.07;;;1.98;;
35893;SDS011;21994;48.204;16.516;2022-08-20T04:13:24;3.45;;;1.95;;
35893;SDS011;21994;48.204;16.516;2022-08-20T04:15:52;3.05;;;1.63;;
35893;SDS011;21994;48.204;16.516;2022-08-20T04:18:23;3.63;;;1.77;;
35893;SDS011;21994;48.204;16.516;2022-08-20T04:20:50;2.10;;;1.77;;
35893;SDS011;21994;48.204;16.516;2022-08-20T04:23:18;3.38;;;1.88;;
35893;SDS011;21994;48.204;16.516;2022-08-20T04:25:46;2.78;;;1.33;;
35893;SDS011;21994;48.204;16.516;2022-08-20T04:28:14;2.92;;;1.50;;
35893;SDS011;21994;48.204;16.516;2022-08-20T04:30:50;2.65;;;1.42;;
35893;SDS011;21994;48.204;16.516;2022-08-20T04:33:20;2.95;;;1.45;;
35893;SDS011;21994;48.204;16.516;2022-08-20T04:35:50;2.50;;;1.48;;
35893;SDS011;21994;48.204;16.516;2022-08-20T04:38:17;1.95;;;1.35;;
35893;SDS011;21994;48.204;16.516;2022-08-20T04:40:47;2.28;;;1.25;;
35893;SDS011;21994;48.204;16.516;2022-08-20T04:43:32;2.33;;;1.50;;
35893;SDS011;21994;48.204;16.516;2022-08-20T04:46:05;2.30;;;1.30;;
35893;SDS011;21994;48.204;16.516;2022-08-20T04:48:34;1.98;;;1.38;;
35893;SDS011;21994;48.204;16.516;2022-08-20T04:51:03;2.22;;;1.33;;
35893;SDS011;21994;48.204;16.516;2022-08-20T04:53:31;1.92;;;0.90;;
35893;SDS011;21994;48.204;16.516;2022-08-20T04:55:58;1.33;;;0.80;;
35893;SDS011;21994;48.204;16.516;2022-08-20T04:58:33;1.90;;;1.02;;
35893;SDS011;21994;48.204;16.516;2022-08-20T05:01:11;1.65;;;1.00;;
35893;SDS011;21994;48.204;16.516;2022-08-20T05:03:37;2.17;;;0.90;;
35893;SDS011;21994;48.204;16.516;2022-08-20T05:06:06;1.38;;;0.88;;
35893;SDS011;21994;48.204;16.516;2022-08-20T05:08:34;2.97;;;1.00;;
35893;SDS011;21994;48.204;16.516;2022-08-20T05:11:02;1.17;;;0.65;;
35893;SDS011;21994;48.204;16.516;2022-08-20T05:13:29;2.17;;;1.00;;
35893;SDS011;21994;48.204;16.516;2022-08-20T05:15:55;1.67;;;0.80;;
35893;SDS011;21994;48.204;16.516;2022-08-20T05:18:25;2.20;;;0.90;;
35893;SDS011;21994;48.204;16.516;2022-08-20T05:20:51;2.88;;;1.27;;
35893;SDS011;21994;48.204;16.516;2022-08-20T05:23:19;1.33;;;0.80;;
35893;SDS011;21994;48.204;16.516;2022-08-20T05:25:46;1.80;;;1.00;;
35893;SDS011;21994;48.204;16.516;2022-08-20T05:28:26;1.65;;;0.80;;
35893;SDS011;21994;48.204;16.516;2022-08-20T05:30:57;1.90;;;1.02;;
35893;SDS011;21994;48.204;16.516;2022-08-20T05:33:27;1.13;;;0.60;;
35893;SDS011;21994;48.204;16.516;2022-08-20T05:35:54;1.40;;;0.68;;
35893;SDS011;21994;48.204;16.516;2022-08-20T05:38:23;2.42;;;1.13;;
35893;SDS011;21994;48.204;16.516;2022-08-20T05:40:52;1.77;;;1.40;;
35893;SDS011;21994;48.204;16.516;2022-08-20T05:43:18;3.42;;;0.73;;
35893;SDS011;21994;48.204;16.516;2022-08-20T05:45:45;1.45;;;0.77;;
35893;SDS011;21994;48.204;16.516;2022-08-20T05:48:17;1.27;;;0.70;;
35893;SDS011;21994;48.204;16.516;2022-08-20T05:53:15;0.90;;;0.60;;
35893;SDS011;21994;48.204;16.516;2022-08-20T05:55:45;0.75;;;0.60;;
35893;SDS011;21994;48.204;16.516;2022-08-20T05:58:16;1.00;;;0.60;;
35893;SDS011;21994;48.204;16.516;2022-08-20T06:00:52;0.82;;;0.70;;
35893;SDS011;21994;48.204;16.516;2022-08-20T06:03:19;2.85;;;1.02;;
35893;SDS011;21994;48.204;16.516;2022-08-20T06:06:04;0.90;;;0.45;;
35893;SDS011;21994;48.204;16.516;2022-08-20T06:08:30;1.48;;;0.75;;
35893;SDS011;21994;48.204;16.516;2022-08-20T06:10:56;1.55;;;0.93;;
35893;SDS011;21994;48.204;16.516;2022-08-20T06:13:23;0.73;;;0.52;;
35893;SDS011;21994;48.204;16.516;2022-08-20T06:15:49;0.82;;;0.65;;
35893;SDS011;21994;48.204;16.516;2022-08-20T06:18:15;1.20;;;0.50;;
35893;SDS011;21994;48.204;16.516;2022-08-20T06:20:41;0.75;;;0.50;;
35893;SDS011;21994;48.204;16.516;2022-08-20T06:23:10;1.58;;;0.60;;
35893;SDS011;21994;48.204;16.516;2022-08-20T06:25:36;1.13;;;0.55;;
35893;SDS011;21994;48.204;16.516;2022-08-20T06:28:02;0.75;;;0.60;;
35893;SDS011;21994;48.204;16.516;2022-08-20T06:30:29;1.20;;;0.70;;
35893;SDS011;21994;48.204;16.516;2022-08-20T06:32:56;0.80;;;0.60;;
35893;SDS011;21994;48.204;16.516;2022-08-20T06:35:22;1.17;;;0.38;;
35893;SDS011;21994;48.204;16.516;2022-08-20T06:37:48;0.57;;;0.50;;
35893;SDS011;21994;48.204;16.516;2022-08-20T06:40:15;0.95;;;0.43;;
35893;SDS011;21994;48.204;16.516;2022-08-20T06:42:46;0.55;;;0.30;;
35893;SDS011;21994;48.204;16.516;2022-08-20T06:45:13;0.60;;;0.47;;
35893;SDS011;21994;48.204;16.516;2022-08-20T06:47:42;0.75;;;0.30;;
35893;SDS011;21994;48.204;16.516;2022-08-20T06:50:11;3.67;;;0.20;;
35893;SDS011;21994;48.204;16.516;2022-08-20T06:52:43;0.32;;;0.30;;
35893;SDS011;21994;48.204;16.516;2022-08-20T06:55:11;1.10;;;0.40;;
35893;SDS011;21994;48.204;16.516;2022-08-20T06:57:39;0.40;;;0.20;;
35893;SDS011;21994;48.204;16.516;2022-08-20T07:00:06;0.40;;;0.22;;
35893;SDS011;21994;48.204;16.516;2022-08-20T07:02:39;0.30;;;0.20;;
35893;SDS011;21994;48.204;16.516;2022-08-20T07:05:06;0.75;;;0.30;;
35893;SDS011;21994;48.204;16.516;2022-08-20T07:07:33;0.28;;;0.20;;
35893;SDS011;21994;48.204;16.516;2022-08-20T07:10:06;2.08;;;0.30;;
35893;SDS011;21994;48.204;16.516;2022-08-20T07:12:35;0.43;;;0.30;;
35893;SDS011;21994;48.204;16.516;2022-08-20T07:15:03;0.30;;;0.28;;
35893;SDS011;21994;48.204;16.516;2022-08-20T07:17:32;0.57;;;0.35;;
35893;SDS011;21994;48.204;16.516;2022-08-20T07:20:02;0.63;;;0.30;;
35893;SDS011;21994;48.204;16.516;2022-08-20T07:22:47;0.40;;;0.35;;
35893;SDS011;21994;48.204;16.516;2022-08-20T07:25:14;0.45;;;0.30;;
35893;SDS011;21994;48.204;16.516;2022-08-20T07:27:43;0.75;;;0.45;;
35893;SDS011;21994;48.204;16.516;2022-08-20T07:30:12;0.60;;;0.30;;
35893;SDS011;21994;48.204;16.516;2022-08-20T07:33:05;0.45;;;0.40;;
35893;SDS011;21994;48.204;16.516;2022-08-20T07:35:31;1.25;;;0.30;;
35893;SDS011;21994;48.204;16.516;2022-08-20T07:37:57;0.43;;;0.30;;
35893;SDS011;21994;48.204;16.516;2022-08-20T07:40:26;0.45;;;0.30;;
35893;SDS011;21994;48.204;16.516;2022-08-20T07:42:55;0.60;;;0.30;;
35893;SDS011;21994;48.204;16.516;2022-08-20T07:45:25;0.30;;;0.20;;
35893;SDS011;21994;48.204;16.516;2022-08-20T07:47:52;0.28;;;0.22;;
35893;SDS011;21994;48.204;16.516;2022-08-20T07:50:24;0.43;;;0.30;;
35893;SDS011;21994;48.204;16.516;2022-08-20T07:55:17;0.93;;;0.40;;
35893;SDS011;21994;48.204;16.516;2022-08-20T07:57:46;0.60;;;0.30;;
35893;SDS011;21994;48.204;16.516;2022-08-20T08:00:14;0.22;;;0.17;;
35893;SDS011;21994;48.204;16.516;2022-08-20T08:02:42;0.20;;;0.13;;
35893;SDS011;21994;48.204;16.516;2022-08-20T08:05:08;0.30;;;0.20;;
35893;SDS011;21994;48.204;16.516;2022-08-20T08:07:35;0.50;;;0.30;;
35893;SDS011;21994;48.204;16.516;2022-08-20T08:10:03;0.47;;;0.30;;
35893;SDS011;21994;48.204;16.516;2022-08-20T08:12:34;0.70;;;0.20;;
35893;SDS011;21994;48.204;16.516;2022-08-20T08:15:08;0.43;;;0.30;;
35893;SDS011;21994;48.204;16.516;2022-08-20T08:17:40;0.80;;;0.30;;
35893;SDS011;21994;48.204;16.516;2022-08-20T08:20:08;1.02;;;0.28;;
35893;SDS011;21994;48.204;16.516;2022-08-20T08:22:36;0.65;;;0.30;;
35893;SDS011;21994;48.204;16.516;2022-08-20T08:25:10;0.25;;;0.25;;
35893;SDS011;21994;48.204;16.516;2022-08-20T08:30:05;0.17;;;0.17;;
35893;SDS011;21994;48.204;16.516;2022-08-20T08:32:37;0.35;;;0.22;;
35893;SDS011;21994;48.204;16.516;2022-08-20T08:35:26;0.15;;;0.10;;
35893;SDS011;21994;48.204;16.516;2022-08-20T08:37:55;0.20;;;0.17;;
35893;SDS011;21994;48.204;16.516;2022-08-20T08:40:22;0.98;;;0.28;;
35893;SDS011;21994;48.204;16.516;2022-08-20T08:42:48;0.60;;;0.35;;
35893;SDS011;21994;48.204;16.516;2022-08-20T08:45:23;1.05;;;0.70;;
35893;SDS011;21994;48.204;16.516;2022-08-20T08:47:55;1.38;;;0.38;;
35893;SDS011;21994;48.204;16.516;2022-08-20T08:50:24;0.55;;;0.30;;
35893;SDS011;21994;48.204;16.516;2022-08-20T08:52:56;1.50;;;0.40;;
35893;SDS011;21994;48.204;16.516;2022-08-20T08:55:25;0.55;;;0.38;;
35893;SDS011;21994;48.204;16.516;2022-08-20T08:57:54;2.20;;;0.52;;
35893;SDS011;21994;48.204;16.516;2022-08-20T09:05:45;1.15;;;0.70;;
35893;SDS011;21994;48.204;16.516;2022-08-20T09:08:16;1.67;;;0.75;;
35893;SDS011;21994;48.204;16.516;2022-08-20T09:10:48;1.33;;;0.90;;
35893;SDS011;21994;48.204;16.516;2022-08-20T09:13:14;1.92;;;0.80;;
35893;SDS011;21994;48.204;16.516;2022-08-20T09:15:40;6.90;;;1.70;;
35893;SDS011;21994;48.204;16.516;2022-08-20T09:18:06;0.93;;;0.68;;
35893;SDS011;21994;48.204;16.516;2022-08-20T09:20:32;2.97;;;0.98;;
35893;SDS011;21994;48.204;16.516;2022-08-20T09:22:58;2.05;;;1.00;;
35893;SDS011;21994;48.204;16.516;2022-08-20T09:25:24;1.80;;;0.90;;
35893;SDS011;21994;48.204;16.516;2022-08-20T09:27:50;1.20;;;0.60;;
35893;SDS011;21994;48.204;16.516;2022-08-20T09:30:16;1.85;;;0.70;;
35893;SDS011;21994;48.204;16.516;2022-08-20T09:32:43;1.65;;;1.00;;
35893;SDS011;21994;48.204;16.516;2022-08-20T09:35:10;1.02;;;0.43;;
35893;SDS011;21994;48.204;16.516;2022-08-20T09:37:37;0.70;;;0.52;;
35893;SDS011;21994;48.204;16.516;2022-08-20T09:40:04;0.70;;;0.47;;
35893;SDS011;21994;48.204;16.516;2022-08-20T09:42:33;1.17;;;0.50;;
35893;SDS011;21994;48.204;16.516;2022-08-20T09:45:01;1.60;;;0.65;;
35893;SDS011;21994;48.204;16.516;2022-08-20T09:47:28;1.02;;;0.55;;
35893;SDS011;21994;48.204;16.516;2022-08-20T09:49:54;0.85;;;0.55;;
35893;SDS011;21994;48.204;16.516;2022-08-20T09:52:22;0.88;;;0.60;;
35893;SDS011;21994;48.204;16.516;2022-08-20T09:54:59;0.77;;;0.38;;
35893;SDS011;21994;48.204;16.516;2022-08-20T09:57:29;1.35;;;0.60;;
35893;SDS011;21994;48.204;16.516;2022-08-20T10:00:06;1.10;;;0.60;;
35893;SDS011;21994;48.204;16.516;2022-08-20T10:02:34;0.95;;;0.65;;
35893;SDS011;21994;48.204;16.516;2022-08-20T10:04:59;1.77;;;0.80;;
35893;SDS011;21994;48.204;16.516;2022-08-20T10:07:25;1.33;;;0.90;;
35893;SDS011;21994;48.204;16.516;2022-08-20T10:09:51;1.48;;;0.80;;
35893;SDS011;21994;48.204;16.516;2022-08-20T10:12:17;1.83;;;0.75;;
35893;SDS011;21994;48.204;16.516;2022-08-20T10:14:43;1.10;;;0.60;;
35893;SDS011;21994;48.204;16.516;2022-08-20T10:17:09;1.02;;;0.68;;
35893;SDS011;21994;48.204;16.516;2022-08-20T10:19:35;0.95;;;0.60;;
35893;SDS011;21994;48.204;16.516;2022-08-20T10:22:01;0.85;;;0.65;;
35893;SDS011;21994;48.204;16.516;2022-08-20T10:24:27;1.42;;;0.60;;
35893;SDS011;21994;48.204;16.516;2022-08-20T10:26:54;0.90;;;0.50;;
35893;SDS011;21994;48.204;16.516;2022-08-20T10:29:23;0.88;;;0.52;;
35893;SDS011;21994;48.204;16.516;2022-08-20T10:31:50;0.65;;;0.43;;
35893;SDS011;21994;48.204;16.516;2022-08-20T10:34:17;0.80;;;0.68;;
35893;SDS011;21994;48.204;16.516;2022-08-20T10:36:44;0.80;;;0.60;;
35893;SDS011;21994;48.204;16.516;2022-08-20T10:39:10;1.00;;;0.60;;
35893;SDS011;21994;48.204;16.516;2022-08-20T10:41:37;1.00;;;0.73;;
35893;SDS011;21994;48.204;16.516;2022-08-20T10:44:03;0.90;;;0.70;;
35893;SDS011;21994;48.204;16.516;2022-08-20T10:46:29;1.60;;;0.55;;
35893;SDS011;21994;48.204;16.516;2022-08-20T10:48:55;1.20;;;0.73;;
35893;SDS011;21994;48.204;16.516;2022-08-20T10:51:21;1.52;;;0.80;;
35893;SDS011;21994;48.204;16.516;2022-08-20T10:53:47;0.65;;;0.60;;
35893;SDS011;21994;48.204;16.516;2022-08-20T10:56:13;1.25;;;0.77;;
35893;SDS011;21994;48.204;16.516;2022-08-20T10:58:38;1.63;;;0.90;;
35893;SDS011;21994;48.204;16.516;2022-08-20T11:01:04;1.05;;;0.68;;
35893;SDS011;21994;48.204;16.516;2022-08-20T11:03:31;0.98;;;0.65;;
35893;SDS011;21994;48.204;16.516;2022-08-20T11:05:56;1.13;;;0.90;;
35893;SDS011;21994;48.204;16.516;2022-08-20T11:08:22;1.63;;;0.85;;
35893;SDS011;21994;48.204;16.516;2022-08-20T11:10:48;2.75;;;1.00;;
35893;SDS011;21994;48.204;16.516;2022-08-20T11:13:14;1.38;;;0.80;;
35893;SDS011;21994;48.204;16.516;2022-08-20T11:15:40;1.08;;;0.73;;
35893;SDS011;21994;48.204;16.516;2022-08-20T11:18:07;1.17;;;0.60;;
35893;SDS011;21994;48.204;16.516;2022-08-20T11:20:34;1.17;;;0.65;;
35893;SDS011;21994;48.204;16.516;2022-08-20T11:23:01;1.27;;;0.82;;
35893;SDS011;21994;48.204;16.516;2022-08-20T11:25:27;1.25;;;0.60;;
35893;SDS011;21994;48.204;16.516;2022-08-20T11:27:54;1.48;;;0.70;;
35893;SDS011;21994;48.204;16.516;2022-08-20T11:30:28;1.02;;;0.57;;
35893;SDS011;21994;48.204;16.516;2022-08-20T11:32:57;1.88;;;0.93;;
35893;SDS011;21994;48.204;16.516;2022-08-20T11:35:25;1.65;;;0.98;;
35893;SDS011;21994;48.204;16.516;2022-08-20T11:37:54;1.30;;;0.77;;
35893;SDS011;21994;48.204;16.516;2022-08-20T11:40:22;1.15;;;0.82;;
35893;SDS011;21994;48.204;16.516;2022-08-20T11:42:49;1.67;;;0.82;;
35893;SDS011;21994;48.204;16.516;2022-08-20T11:45:15;1.98;;;1.00;;
35893;SDS011;21994;48.204;16.516;2022-08-20T11:47:41;2.42;;;1.23;;
35893;SDS011;21994;48.204;16.516;2022-08-20T11:50:12;3.22;;;1.25;;
35893;SDS011;21994;48.204;16.516;2022-08-20T11:52:41;1.67;;;1.08;;
35893;SDS011;21994;48.204;16.516;2022-08-20T11:55:08;2.45;;;1.38;;
35893;SDS011;21994;48.204;16.516;2022-08-20T11:57:39;2.63;;;1.33;;
35893;SDS011;21994;48.204;16.516;2022-08-20T12:00:10;2.47;;;1.30;;
35893;SDS011;21994;48.204;16.516;2022-08-20T12:02:45;3.45;;;1.45;;
35893;SDS011;21994;48.204;16.516;2022-08-20T12:05:13;1.15;;;1.05;;
35893;SDS011;21994;48.204;16.516;2022-08-20T12:07:39;2.38;;;1.05;;
35893;SDS011;21994;48.204;16.516;2022-08-20T12:10:05;2.63;;;1.10;;
35893;SDS011;21994;48.204;16.516;2022-08-20T12:12:34;2.38;;;1.20;;
35893;SDS011;21994;48.204;16.516;2022-08-20T12:15:01;2.10;;;1.08;;
35893;SDS011;21994;48.204;16.516;2022-08-20T12:17:28;1.35;;;0.90;;
35893;SDS011;21994;48.204;16.516;2022-08-20T12:19:57;2.17;;;0.98;;
35893;SDS011;21994;48.204;16.516;2022-08-20T12:22:26;2.43;;;0.90;;
35893;SDS011;21994;48.204;16.516;2022-08-20T12:24:53;1.58;;;0.82;;
35893;SDS011;21994;48.204;16.516;2022-08-20T12:29:49;3.70;;;1.15;;
35893;SDS011;21994;48.204;16.516;2022-08-20T12:32:21;1.98;;;1.23;;
35893;SDS011;21994;48.204;16.516;2022-08-20T12:34:49;1.50;;;0.93;;
35893;SDS011;21994;48.204;16.516;2022-08-20T12:37:18;1.40;;;1.17;;
35893;SDS011;21994;48.204;16.516;2022-08-20T12:39:49;2.38;;;1.23;;
35893;SDS011;21994;48.204;16.516;2022-08-20T12:42:17;2.50;;;1.30;;
35893;SDS011;21994;48.204;16.516;2022-08-20T12:44:43;1.55;;;1.30;;
35893;SDS011;21994;48.204;16.516;2022-08-20T12:47:11;1.60;;;1.20;;
35893;SDS011;21994;48.204;16.516;2022-08-20T12:49:49;1.67;;;1.25;;
35893;SDS011;21994;48.204;16.516;2022-08-20T12:52:19;2.13;;;1.17;;
35893;SDS011;21994;48.204;16.516;2022-08-20T12:54:46;1.85;;;1.02;;
35893;SDS011;21994;48.204;16.516;2022-08-20T12:57:21;2.72;;;1.10;;
35893;SDS011;21994;48.204;16.516;2022-08-20T12:59:55;1.92;;;1.00;;
35893;SDS011;21994;48.204;16.516;2022-08-20T13:02:26;1.67;;;1.30;;
35893;SDS011;21994;48.204;16.516;2022-08-20T13:04:52;1.63;;;0.93;;
35893;SDS011;21994;48.204;16.516;2022-08-20T13:07:18;1.90;;;1.40;;
35893;SDS011;21994;48.204;16.516;2022-08-20T13:09:44;2.20;;;1.27;;
35893;SDS011;21994;48.204;16.516;2022-08-20T13:12:10;5.35;;;1.33;;
35893;SDS011;21994;48.204;16.516;2022-08-20T13:14:38;1.42;;;1.08;;
35893;SDS011;21994;48.204;16.516;2022-08-20T13:17:06;2.85;;;1.48;;
35893;SDS011;21994;48.204;16.516;2022-08-20T13:19:33;2.90;;;1.52;;
35893;SDS011;21994;48.204;16.516;2022-08-20T13:22:01;2.15;;;1.42;;
35893;SDS011;21994;48.204;16.516;2022-08-20T13:24:27;2.10;;;1.38;;
35893;SDS011;21994;48.204;16.516;2022-08-20T13:26:55;4.28;;;1.95;;
35893;SDS011;21994;48.204;16.516;2022-08-20T13:29:30;3.97;;;1.40;;
35893;SDS011;21994;48.204;16.516;2022-08-20T13:31:56;2.45;;;1.40;;
35893;SDS011;21994;48.204;16.516;2022-08-20T13:34:22;2.13;;;1.38;;
35893;SDS011;21994;48.204;16.516;2022-08-20T13:36:48;1.92;;;1.40;;
35893;SDS011;21994;48.204;16.516;2022-08-20T13:39:13;2.47;;;1.70;;
35893;SDS011;21994;48.204;16.516;2022-08-20T13:41:39;2.63;;;1.55;;
35893;SDS011;21994;48.204;16.516;2022-08-20T13:44:05;1.75;;;1.45;;
35893;SDS011;21994;48.204;16.516;2022-08-20T13:46:31;2.17;;;1.35;;
35893;SDS011;21994;48.204;16.516;2022-08-20T13:48:57;2.67;;;1.30;;
35893;SDS011;21994;48.204;16.516;2022-08-20T13:51:23;1.48;;;1.00;;
35893;SDS011;21994;48.204;16.516;2022-08-20T13:53:49;1.73;;;1.17;;
35893;SDS011;21994;48.204;16.516;2022-08-20T13:56:15;1.75;;;1.05;;
35893;SDS011;21994;48.204;16.516;2022-08-20T13:58:41;2.53;;;1.38;;
35893;SDS011;21994;48.204;16.516;2022-08-20T14:01:07;2.35;;;1.77;;
35893;SDS011;21994;48.204;16.516;2022-08-20T14:03:32;3.53;;;1.45;;
35893;SDS011;21994;48.204;16.516;2022-08-20T14:05:59;1.90;;;1.08;;
35893;SDS011;21994;48.204;16.516;2022-08-20T14:08:27;2.22;;;1.20;;
35893;SDS011;21994;48.204;16.516;2022-08-20T14:10:53;1.85;;;1.42;;
35893;SDS011;21994;48.204;16.516;2022-08-20T14:13:20;2.40;;;1.35;;
35893;SDS011;21994;48.204;16.516;2022-08-20T14:15:48;2.72;;;1.30;;
35893;SDS011;21994;48.204;16.516;2022-08-20T14:18:15;2.70;;;1.30;;
35893;SDS011;21994;48.204;16.516;2022-08-20T14:20:42;2.30;;;1.50;;
35893;SDS011;21994;48.204;16.516;2022-08-20T14:23:08;3.63;;;1.85;;
35893;SDS011;21994;48.204;16.516;2022-08-20T14:25:34;7.07;;;1.10;;
35893;SDS011;21994;48.204;16.516;2022-08-20T14:28:15;2.20;;;1.20;;
35893;SDS011;21994;48.204;16.516;2022-08-20T14:30:44;2.80;;;1.20;;
35893;SDS011;21994;48.204;16.516;2022-08-20T14:33:12;2.75;;;1.50;;
35893;SDS011;21994;48.204;16.516;2022-08-20T14:35:38;1.38;;;1.15;;
35893;SDS011;21994;48.204;16.516;2022-08-20T14:38:05;2.17;;;1.40;;
35893;SDS011;21994;48.204;16.516;2022-08-20T14:40:32;2.15;;;1.60;;
35893;SDS011;21994;48.204;16.516;2022-08-20T14:42:58;3.28;;;1.73;;
35893;SDS011;21994;48.204;16.516;2022-08-20T14:45:25;2.28;;;1.50;;
35893;SDS011;21994;48.204;16.516;2022-08-20T14:47:55;2.75;;;1.55;;
35893;SDS011;21994;48.204;16.516;2022-08-20T14:50:27;2.72;;;1.83;;
35893;SDS011;21994;48.204;16.516;2022-08-20T14:52:58;3.25;;;1.60;;
35893;SDS011;21994;48.204;16.516;2022-08-20T14:55:26;3.60;;;1.60;;
35893;SDS011;21994;48.204;16.516;2022-08-20T14:57:55;3.28;;;2.00;;
35893;SDS011;21994;48.204;16.516;2022-08-20T15:00:23;3.40;;;1.98;;
35893;SDS011;21994;48.204;16.516;2022-08-20T15:05:18;3.40;;;1.70;;
35893;SDS011;21994;48.204;16.516;2022-08-20T15:07:46;2.88;;;1.70;;
35893;SDS011;21994;48.204;16.516;2022-08-20T15:10:15;2.15;;;1.67;;
35893;SDS011;21994;48.204;16.516;2022-08-20T15:12:45;3.38;;;1.90;;
35893;SDS011;21994;48.204;16.516;2022-08-20T15:15:13;3.08;;;1.70;;